In Rescue
 
Open Full Screen Window  High Contrast Mode
Wind Gusting 21 knots
13
May 20, 2019 2:28 PM CDT
Weather Information
Wind Direction
  180 °
Wind Speed
  13 kt (15 mph)
Wind Gust
  21 kt (24 mph)
Altimeter
30.14 in
Visibility
10 SM
Temperature
13° C
55° F
Dewpoint
-02° C
28° F
Humidity
36%
1hr Rain Fall
00.00 in.
24hr Rain Fall
00.01 in.
Sky Condition
Clear
VFR

METAR KBFW 201928Z AUTO 18013G21KT 10SM CLR 13/M02 A3014 RMK AO2

FAA Disclaimer: The data displayed is for advisory purposes only and is not to be used for flight planning or operations.